Time;durP1;ratioP1;P1;durP2;ratioP2;P2;SDS_P1;SDS_P2;PMS_P1;PMS_P2;Temp;Humidity;BMP_temperature;BMP_pressure;BME280_temperature;BME280_humidity;BME280_pressure;Samples;Min_cycle;Max_cycle;Signal;HPM_P1;HPM_P2
2022/01/21 00:00:57;;;;;;;4.70;2.30;;;1.10;99.90;;;;;;5015435;28;20180;-33
2022/01/21 00:03:23;;;;;;;5.80;2.17;;;1.10;99.90;;;;;;4976246;28;1144610;-33
2022/01/21 00:05:49;;;;;;;9.40;3.00;;;1.10;99.90;;;;;;5016539;28;20213;-32
2022/01/21 00:08:16;;;;;;;7.10;3.10;;;1.10;99.90;;;;;;5033017;28;20210;-33
2022/01/21 00:10:42;;;;;;;8.97;3.10;;;1.10;99.90;;;;;;5016421;28;20685;-33
2022/01/21 00:13:17;;;;;;;6.47;2.67;;;1.10;99.90;;;;;;5016568;28;20229;-32
2022/01/21 00:15:43;;;;;;;9.40;2.97;;;1.10;99.90;;;;;;5016209;28;20185;-33
2022/01/21 00:18:10;;;;;;;8.63;2.77;;;1.10;99.90;;;;;;5032372;28;20186;-32
2022/01/21 00:31:34;;;;;;;13.60;4.27;;;1.10;99.90;;;;;;5032443;28;20216;-33
2022/01/21 00:34:00;;;;;;;8.90;4.00;;;1.10;99.90;;;;;;5014283;28;20299;-33
2022/01/21 00:36:26;;;;;;;7.23;3.47;;;1.10;99.90;;;;;;5033326;28;20182;-33
2022/01/21 00:38:54;;;;;;;6.33;3.37;;;1.10;99.90;;;;;;5013746;28;20177;-33
2022/01/21 00:41:24;;;;;;;6.30;2.97;;;1.10;99.90;;;;;;5032313;28;20236;-33
2022/01/21 00:43:50;;;;;;;5.30;2.50;;;1.10;99.90;;;;;;5015793;28;20201;-32
2022/01/21 00:46:19;;;;;;;9.33;2.83;;;1.10;99.90;;;;;;5033420;28;20654;-33
2022/01/21 00:48:45;;;;;;;7.03;2.43;;;1.10;99.90;;;;;;5015564;28;20190;-33
2022/01/21 00:51:11;;;;;;;6.60;2.10;;;1.10;99.90;;;;;;5038162;28;20270;-33
2022/01/21 00:53:38;;;;;;;6.87;2.57;;;1.10;99.90;;;;;;5037041;28;20280;-32
2022/01/21 00:56:04;;;;;;;6.97;2.30;;;1.10;99.90;;;;;;5039838;28;20174;-33
2022/01/21 00:58:30;;;;;;;5.83;2.43;;;1.10;99.90;;;;;;5023162;28;20172;-33
2022/01/21 01:00:56;;;;;;;7.13;2.50;;;1.00;99.90;;;;;;5023093;28;20254;-33
2022/01/21 01:03:22;;;;;;;9.10;2.23;;;1.00;99.90;;;;;;5016781;28;20232;-32
2022/01/21 01:05:51;;;;;;;5.97;2.80;;;1.00;99.90;;;;;;5031753;28;20234;-33
2022/01/21 01:08:21;;;;;;;5.63;2.83;;;1.00;99.90;;;;;;5031906;28;20186;-32
2022/01/21 01:21:25;;;;;;;5.73;2.37;;;1.00;99.90;;;;;;5031648;28;20602;-32
2022/01/21 01:27:37;;;;;;;4.90;2.33;;;1.00;99.90;;;;;;5032859;28;20210;-33
2022/01/21 01:29:33;;;;;;;6.37;2.57;;;1.00;99.90;;;;;;5030854;28;20212;-32
2022/01/21 01:31:59;;;;;;;7.80;2.57;;;1.00;99.90;;;;;;5014885;28;20771;-33
2022/01/21 01:34:25;;;;;;;8.63;2.00;;;1.00;99.90;;;;;;5014724;28;20228;-32
2022/01/21 01:36:57;;;;;;;5.63;1.90;;;1.00;99.90;;;;;;5014673;28;20201;-32
2022/01/21 01:39:42;;;;;;;7.93;2.43;;;1.00;99.90;;;;;;5014487;28;20178;-32
2022/01/21 01:50:05;;;;;;;5.60;2.10;;;1.00;99.90;;;;;;5031172;28;20177;-33
2022/01/21 01:52:32;;;;;;;5.20;2.30;;;0.90;99.90;;;;;;5014305;28;20352;-33
2022/01/21 01:54:59;;;;;;;6.93;2.23;;;0.90;99.90;;;;;;5030851;28;20173;-32
2022/01/21 01:57:25;;;;;;;4.73;2.20;;;1.00;99.90;;;;;;5014305;28;20189;-32
2022/01/21 01:59:51;;;;;;;7.43;2.40;;;1.00;99.90;;;;;;5014449;28;20238;-33
2022/01/21 02:02:19;;;;;;;6.93;2.53;;;1.00;99.90;;;;;;5030694;28;20678;-33
2022/01/21 02:04:46;;;;;;;5.10;2.00;;;1.00;99.90;;;;;;5014338;28;20195;-33
2022/01/21 02:07:13;;;;;;;7.97;2.20;;;1.00;99.90;;;;;;5014482;28;20185;-33
2022/01/21 02:09:39;;;;;;;7.23;1.93;;;1.00;99.90;;;;;;5030486;28;20235;-33
2022/01/21 02:12:07;;;;;;;7.40;2.30;;;1.00;99.90;;;;;;5030619;28;20212;-33
2022/01/21 02:14:36;;;;;;;4.70;2.17;;;1.00;99.90;;;;;;5014003;28;20204;-33
2022/01/21 02:22:49;;;;;;;6.40;2.10;;;1.00;99.90;;;;;;5030080;28;20197;-32
2022/01/21 02:25:18;;;;;;;6.67;2.50;;;1.00;99.90;;;;;;5030881;28;20181;-33
2022/01/21 02:27:49;;;;;;;7.83;2.67;;;0.90;99.90;;;;;;5031075;28;20239;-32
2022/01/21 02:30:19;;;;;;;10.47;2.17;;;0.90;99.90;;;;;;5030580;28;20186;-32
2022/01/21 02:32:58;;;;;;;4.67;2.10;;;0.90;99.90;;;;;;5030162;28;20241;-33
2022/01/21 02:35:25;;;;;;;6.93;2.47;;;0.90;99.90;;;;;;5015064;28;20181;-35
2022/01/21 02:37:52;;;;;;;5.77;1.90;;;0.90;99.90;;;;;;5013783;28;20180;-32
2022/01/21 02:40:18;;;;;;;8.43;2.40;;;0.90;99.90;;;;;;5013632;28;20183;-32
2022/01/21 02:42:45;;;;;;;6.30;1.93;;;0.90;99.90;;;;;;5013716;28;20206;-32
2022/01/21 02:45:14;;;;;;;4.70;1.90;;;0.90;99.90;;;;;;5030354;28;20181;-33
2022/01/21 02:47:41;;;;;;;6.60;2.03;;;0.90;99.90;;;;;;5013489;28;20189;-32
2022/01/21 02:50:10;;;;;;;12.07;2.00;;;0.90;99.90;;;;;;5030233;28;20197;-32
2022/01/21 02:52:42;;;;;;;9.13;2.80;;;0.90;99.90;;;;;;5013190;28;20233;-32
2022/01/21 02:55:11;;;;;;;4.23;2.70;;;0.90;99.90;;;;;;5013495;28;20237;-33
2022/01/21 02:57:37;;;;;;;4.70;2.07;;;0.80;99.90;;;;;;5013261;28;20182;-33
2022/01/21 03:00:05;;;;;;;6.47;2.10;;;0.80;99.90;;;;;;5013724;28;20184;-33
2022/01/21 03:02:31;;;;;;;5.30;2.03;;;0.80;99.90;;;;;;5013147;28;20236;-32
2022/01/21 03:05:03;;;;;;;8.13;2.33;;;0.80;99.90;;;;;;5013617;28;20189;-32
2022/01/21 03:07:29;;;;;;;5.63;2.00;;;0.80;99.90;;;;;;5029693;28;20189;-32
2022/01/21 03:09:55;;;;;;;6.27;2.50;;;0.70;99.90;;;;;;5029545;28;20193;-33
2022/01/21 03:12:21;;;;;;;6.83;2.37;;;0.70;99.90;;;;;;5030974;28;20216;-32
2022/01/21 03:14:48;;;;;;;5.60;2.10;;;0.70;99.90;;;;;;5029722;28;20177;-33
2022/01/21 03:17:14;;;;;;;8.73;2.07;;;0.70;99.90;;;;;;5013146;28;20259;-33
2022/01/21 03:19:40;;;;;;;6.60;1.90;;;0.70;99.90;;;;;;5013226;28;20191;-32
2022/01/21 03:22:06;;;;;;;5.37;2.13;;;0.60;99.90;;;;;;5029667;28;20204;-32
2022/01/21 03:24:32;;;;;;;8.10;2.27;;;0.60;99.90;;;;;;5013257;28;20184;-33
2022/01/21 03:26:58;;;;;;;5.03;1.80;;;0.60;99.90;;;;;;5029512;28;20185;-33
2022/01/21 03:29:24;;;;;;;6.97;2.23;;;0.50;99.90;;;;;;5030550;28;20188;-32
2022/01/21 03:31:50;;;;;;;6.27;2.43;;;0.50;99.90;;;;;;5017403;28;20215;-32
2022/01/21 03:34:16;;;;;;;6.90;2.10;;;0.50;99.90;;;;;;5017133;28;20216;-33
2022/01/21 03:36:42;;;;;;;5.73;2.57;;;0.40;99.90;;;;;;5017144;28;20217;-32
2022/01/21 03:39:10;;;;;;;4.60;1.90;;;0.40;99.90;;;;;;5016916;28;20551;-33
2022/01/21 03:41:35;;;;;;;4.73;2.00;;;0.30;99.90;;;;;;5017091;28;20679;-33
2022/01/21 03:44:03;;;;;;;9.60;2.43;;;0.30;99.90;;;;;;5017125;28;20182;-32
2022/01/21 03:46:31;;;;;;;7.53;2.30;;;0.20;99.90;;;;;;5033420;28;20221;-32
2022/01/21 03:48:57;;;;;;;5.43;2.60;;;0.20;99.90;;;;;;5016622;28;20238;-32
2022/01/21 03:51:23;;;;;;;5.93;2.07;;;0.10;99.90;;;;;;5016768;28;20217;-33
2022/01/21 03:53:50;;;;;;;6.47;2.17;;;0.10;99.90;;;;;;5016858;28;20329;-32
2022/01/21 03:56:17;;;;;;;4.53;2.50;;;0.10;99.90;;;;;;5016698;28;20185;-32
2022/01/21 03:58:43;;;;;;;6.47;2.03;;;0.10;99.90;;;;;;5016439;28;20192;-33
2022/01/21 04:01:12;;;;;;;7.07;2.77;;;0.10;99.90;;;;;;5017017;28;20180;-32
2022/01/21 04:03:38;;;;;;;6.10;2.13;;;0.10;99.90;;;;;;5032933;28;20227;-32
2022/01/21 04:06:04;;;;;;;9.67;2.70;;;0.10;99.90;;;;;;5016718;28;20182;-32
2022/01/21 04:08:30;;;;;;;6.03;2.27;;;0.20;99.90;;;;;;5016306;28;20181;-32
2022/01/21 04:11:03;;;;;;;6.10;2.40;;;0.20;99.90;;;;;;5017117;28;20708;-32
2022/01/21 04:13:31;;;;;;;4.47;2.37;;;0.20;99.90;;;;;;5031824;28;20209;-32
2022/01/21 04:16:02;;;;;;;7.40;2.07;;;0.30;99.90;;;;;;5017782;28;20182;-32
2022/01/21 04:18:30;;;;;;;6.30;2.57;;;0.30;99.90;;;;;;5032475;28;20180;-32
2022/01/21 04:20:59;;;;;;;5.70;2.27;;;0.30;99.90;;;;;;5016513;28;20297;-32
2022/01/21 04:23:27;;;;;;;4.27;2.13;;;0.30;99.90;;;;;;5016354;28;20209;-32
2022/01/21 04:25:53;;;;;;;9.47;2.93;;;0.30;99.90;;;;;;5016069;28;20205;-32
2022/01/21 04:28:20;;;;;;;8.83;3.43;;;0.40;99.90;;;;;;5015483;28;20188;-33
2022/01/21 04:30:47;;;;;;;7.07;2.50;;;0.40;99.90;;;;;;5032595;28;20184;-33
2022/01/21 04:33:15;;;;;;;9.67;2.40;;;0.40;99.90;;;;;;5015989;28;20217;-32
2022/01/21 04:35:43;;;;;;;6.97;2.20;;;0.40;99.90;;;;;;5016298;28;20177;-33
2022/01/21 04:38:12;;;;;;;7.57;3.07;;;0.50;99.90;;;;;;5032084;28;20191;-33
2022/01/21 04:40:55;;;;;;;6.17;2.17;;;0.50;99.90;;;;;;5031831;28;20199;-32
2022/01/21 04:48:51;;;;;;;6.70;2.30;;;0.50;99.90;;;;;;5032245;28;20202;-32
2022/01/21 04:51:25;;;;;;;4.17;2.00;;;0.50;99.90;;;;;;5015806;28;20193;-32
2022/01/21 04:53:51;;;;;;;12.53;3.30;;;0.50;99.90;;;;;;5032280;28;20224;-32
2022/01/21 04:56:22;;;;;;;4.53;2.20;;;0.50;99.90;;;;;;5032083;28;20573;-32
2022/01/21 04:58:48;;;;;;;7.73;2.40;;;0.50;99.90;;;;;;5031921;28;20230;-33
2022/01/21 05:01:14;;;;;;;5.97;2.17;;;0.40;99.90;;;;;;5031847;28;20282;-32
2022/01/21 05:03:45;;;;;;;4.87;2.27;;;0.50;99.90;;;;;;5004465;28;20220;-32
2022/01/21 05:06:12;;;;;;;7.03;2.30;;;0.50;99.90;;;;;;5028843;28;20181;-33
2022/01/21 05:11:10;;;;;;;4.53;2.53;;;0.50;99.90;;;;;;5028372;28;20189;-32
2022/01/21 05:13:42;;;;;;;5.73;2.43;;;0.50;99.90;;;;;;5028327;28;20232;-32
2022/01/21 05:18:37;;;;;;;9.40;2.63;;;0.50;99.90;;;;;;5044375;28;20254;-32
2022/01/21 05:21:28;;;;;;;5.73;2.30;;;0.50;99.90;;;;;;5007078;28;20228;-32
2022/01/21 05:24:09;;;;;;;5.27;2.60;;;0.50;99.90;;;;;;5011580;28;20647;-32
2022/01/21 05:26:40;;;;;;;5.33;2.23;;;0.50;99.90;;;;;;5011592;28;20182;-31
2022/01/21 05:29:11;;;;;;;5.70;2.30;;;0.50;99.90;;;;;;5011550;28;20253;-32
2022/01/21 05:31:51;;;;;;;10.33;2.53;;;0.60;99.90;;;;;;5013228;28;20209;-32
2022/01/21 05:34:37;;;;;;;7.70;2.60;;;0.60;99.90;;;;;;5023870;28;20196;-32
2022/01/21 05:37:17;;;;;;;9.23;2.80;;;0.60;99.90;;;;;;5022036;28;20267;-33
2022/01/21 05:40:07;;;;;;;9.63;2.60;;;0.60;99.90;;;;;;5016631;28;20761;-32
2022/01/21 05:42:48;;;;;;;5.97;2.47;;;0.60;99.90;;;;;;5011317;28;20218;-32
2022/01/21 05:48:52;;;;;;;5.53;3.00;;;0.50;99.90;;;;;;5011422;28;20192;-31
2022/01/21 05:51:47;;;;;;;8.40;2.80;;;0.50;99.90;;;;;;5006249;28;20332;-32
2022/01/21 05:54:44;;;;;;;6.47;2.80;;;0.50;99.90;;;;;;4998886;28;20205;-35
2022/01/21 05:57:39;;;;;;;4.90;2.57;;;0.50;99.90;;;;;;5003227;28;20195;-33
2022/01/21 06:00:07;;;;;;;7.97;2.63;;;0.50;99.90;;;;;;4999232;28;20180;-34
2022/01/21 06:02:33;;;;;;;8.60;2.77;;;0.50;99.90;;;;;;5021260;28;20236;-33
2022/01/21 06:04:58;;;;;;;7.00;3.00;;;0.50;99.90;;;;;;5012778;28;20213;-33
2022/01/21 06:07:24;;;;;;;8.27;2.70;;;0.50;99.90;;;;;;5012319;28;20232;-32
2022/01/21 06:09:50;;;;;;;9.07;2.57;;;0.50;99.90;;;;;;5029864;28;20223;-33
2022/01/21 06:12:16;;;;;;;9.43;2.70;;;0.50;99.90;;;;;;5029882;28;20259;-33
2022/01/21 06:14:42;;;;;;;6.77;2.87;;;0.50;99.90;;;;;;5030636;28;20220;-33
2022/01/21 06:17:11;;;;;;;6.63;2.97;;;0.50;99.90;;;;;;5029501;28;20208;-36
2022/01/21 06:19:38;;;;;;;9.10;3.93;;;0.50;99.90;;;;;;5030414;28;20267;-33
2022/01/21 06:22:04;;;;;;;8.67;3.00;;;0.50;99.90;;;;;;5014052;28;20200;-33
2022/01/21 06:24:30;;;;;;;11.87;4.03;;;0.50;99.90;;;;;;5030296;28;20184;-32
2022/01/21 06:27:00;;;;;;;10.07;3.27;;;0.50;99.90;;;;;;5030297;28;20250;-32
2022/01/21 06:29:26;;;;;;;12.43;3.47;;;0.50;99.90;;;;;;5030229;28;20189;-33
2022/01/21 06:31:52;;;;;;;7.87;3.33;;;0.50;99.90;;;;;;5030144;28;20219;-33
2022/01/21 06:34:18;;;;;;;5.37;3.00;;;0.60;99.90;;;;;;5030024;28;20216;-33
2022/01/21 06:36:44;;;;;;;6.23;2.73;;;0.60;99.90;;;;;;5013835;28;20181;-35
2022/01/21 06:39:10;;;;;;;8.67;3.50;;;0.60;99.90;;;;;;5013203;28;20185;-33
2022/01/21 06:41:36;;;;;;;9.93;3.37;;;0.60;99.90;;;;;;5013719;28;20183;-34
2022/01/21 06:44:02;;;;;;;9.80;3.43;;;0.60;99.90;;;;;;5013871;28;20200;-33
2022/01/21 06:46:28;;;;;;;6.27;3.30;;;0.60;99.90;;;;;;5013508;28;20184;-33
2022/01/21 06:48:53;;;;;;;12.07;3.73;;;0.60;99.90;;;;;;5029977;28;20260;-33
2022/01/21 06:51:19;;;;;;;7.23;2.70;;;0.60;99.90;;;;;;5030081;28;20287;-33
2022/01/21 06:53:45;;;;;;;7.20;3.60;;;0.60;99.90;;;;;;5013573;28;20209;-32
2022/01/21 06:56:11;;;;;;;7.07;2.80;;;0.60;99.90;;;;;;5013695;28;20207;-33
2022/01/21 06:58:37;;;;;;;7.57;3.43;;;0.60;99.90;;;;;;5029907;28;20199;-33
2022/01/21 07:01:03;;;;;;;9.57;3.83;;;0.60;99.90;;;;;;5013724;28;20178;-33
2022/01/21 07:03:28;;;;;;;6.53;2.90;;;0.60;99.90;;;;;;5013052;28;20235;-33
2022/01/21 07:05:54;;;;;;;9.63;3.30;;;0.60;99.90;;;;;;5030039;28;20255;-32
2022/01/21 07:08:20;;;;;;;6.73;3.10;;;0.60;99.90;;;;;;5029605;28;20216;-33
2022/01/21 07:10:46;;;;;;;9.90;3.67;;;0.60;99.90;;;;;;5013371;28;20193;-33
2022/01/21 07:13:12;;;;;;;9.97;3.50;;;0.60;99.90;;;;;;5029752;28;20217;-35
2022/01/21 07:15:38;;;;;;;8.33;3.70;;;0.60;99.90;;;;;;5013501;28;20184;-33
2022/01/21 07:18:04;;;;;;;10.70;4.50;;;0.60;99.90;;;;;;5013106;28;20187;-33
2022/01/21 07:20:30;;;;;;;9.33;3.80;;;0.60;99.90;;;;;;5013463;28;20200;-33
2022/01/21 07:22:56;;;;;;;10.30;3.87;;;0.60;99.90;;;;;;5029441;28;20208;-33
2022/01/21 07:25:22;;;;;;;10.40;4.10;;;0.60;99.90;;;;;;5029695;28;20197;-33
2022/01/21 07:27:48;;;;;;;8.67;3.67;;;0.60;99.90;;;;;;5012989;28;20191;-34
2022/01/21 07:30:15;;;;;;;10.13;4.57;;;0.60;99.90;;;;;;5013287;28;20185;-33
2022/01/21 07:32:41;;;;;;;13.17;5.23;;;0.60;99.90;;;;;;5029525;28;20217;-33
2022/01/21 07:35:09;;;;;;;11.40;5.17;;;0.60;99.90;;;;;;5029644;28;20180;-32
2022/01/21 07:37:36;;;;;;;7.87;4.10;;;0.60;99.90;;;;;;5013014;28;20249;-31
2022/01/21 07:40:04;;;;;;;12.10;4.10;;;0.60;99.90;;;;;;5029533;28;20634;-33
2022/01/21 07:42:30;;;;;;;10.83;3.83;;;0.60;99.90;;;;;;5029574;28;20198;-33
2022/01/21 07:44:56;;;;;;;10.50;3.17;;;0.70;99.90;;;;;;5013052;28;20247;-33
2022/01/21 07:47:22;;;;;;;7.60;3.03;;;0.70;99.90;;;;;;5029354;28;20184;-33
2022/01/21 07:49:48;;;;;;;11.20;3.43;;;0.70;99.90;;;;;;5029199;28;20185;-33
2022/01/21 07:52:15;;;;;;;7.20;3.30;;;0.70;99.90;;;;;;5012846;28;20224;-33
2022/01/21 07:54:41;;;;;;;8.90;3.10;;;0.70;99.90;;;;;;5029383;28;20195;-35
2022/01/21 07:57:08;;;;;;;8.10;3.70;;;0.70;99.90;;;;;;5029268;28;20178;-33
2022/01/21 07:59:34;;;;;;;12.40;4.40;;;0.70;99.90;;;;;;5029027;28;20174;-35
2022/01/21 08:02:00;;;;;;;8.67;3.90;;;0.80;99.90;;;;;;5012757;28;20205;-33
2022/01/21 08:04:26;;;;;;;7.50;3.90;;;0.80;99.90;;;;;;5012713;28;20201;-33
2022/01/21 08:06:53;;;;;;;6.77;4.27;;;0.80;99.90;;;;;;5012715;28;20224;-31
2022/01/21 08:09:23;;;;;;;9.63;4.83;;;0.80;99.90;;;;;;5028746;28;20236;-33
2022/01/21 08:11:54;;;;;;;8.70;4.00;;;0.80;99.90;;;;;;5012512;28;20233;-33
2022/01/21 08:14:22;;;;;;;11.40;3.93;;;0.90;99.90;;;;;;5029486;28;20234;-33
2022/01/21 08:16:48;;;;;;;8.10;3.57;;;0.80;99.90;;;;;;5015928;28;20185;-33
2022/01/21 08:19:14;;;;;;;6.07;3.90;;;0.80;99.90;;;;;;5032460;28;20264;-33
2022/01/21 08:21:41;;;;;;;10.60;3.80;;;0.90;99.90;;;;;;5016212;28;20284;-35
2022/01/21 08:24:08;;;;;;;8.17;3.53;;;0.90;99.90;;;;;;5034069;28;20181;-32
2022/01/21 08:26:35;;;;;;;6.80;3.60;;;0.90;99.90;;;;;;5032665;28;20174;-33
2022/01/21 08:29:02;;;;;;;8.00;3.00;;;1.00;99.90;;;;;;5032414;28;20186;-33
2022/01/21 08:31:28;;;;;;;9.17;3.57;;;1.00;99.90;;;;;;5015935;28;20184;-33
2022/01/21 08:33:54;;;;;;;11.13;3.33;;;1.00;99.90;;;;;;5032446;28;20201;-33
2022/01/21 08:36:25;;;;;;;8.87;3.20;;;1.00;99.90;;;;;;5015355;28;20196;-34
2022/01/21 08:38:51;;;;;;;6.23;2.97;;;1.10;99.90;;;;;;5032456;28;20264;-33
2022/01/21 08:41:18;;;;;;;10.20;3.20;;;1.10;99.90;;;;;;5015897;28;20186;-34
2022/01/21 08:43:44;;;;;;;7.63;3.03;;;1.10;99.90;;;;;;5032348;28;20205;-33
2022/01/21 08:46:10;;;;;;;7.23;3.30;;;1.10;99.90;;;;;;5015599;28;20189;-33
2022/01/21 08:48:36;;;;;;;9.20;3.97;;;1.20;99.90;;;;;;5032106;28;20189;-34
2022/01/21 08:51:08;;;;;;;10.20;3.93;;;1.20;99.90;;;;;;5015644;28;20288;-33
2022/01/21 08:53:38;;;;;;;7.97;4.03;;;1.20;99.90;;;;;;5031979;28;20276;-33
2022/01/21 08:56:12;;;;;;;9.27;4.23;;;1.30;99.90;;;;;;5015847;28;20178;-33
2022/01/21 08:58:39;;;;;;;6.77;4.17;;;1.30;99.90;;;;;;5031633;28;20245;-33
2022/01/21 09:01:05;;;;;;;8.20;4.03;;;1.40;99.90;;;;;;5032196;28;20189;-33
2022/01/21 09:03:33;;;;;;;7.23;3.90;;;1.50;99.90;;;;;;5015247;28;20222;-33
2022/01/21 09:05:59;;;;;;;13.13;4.17;;;1.50;99.90;;;;;;5015433;28;20196;-33
2022/01/21 09:08:29;;;;;;;9.80;4.00;;;1.50;99.90;;;;;;5015200;28;20178;-36
2022/01/21 09:10:57;;;;;;;12.13;3.47;;;1.50;99.90;;;;;;5015438;28;20189;-33
2022/01/21 09:13:27;;;;;;;11.03;3.77;;;1.60;99.90;;;;;;5015066;28;20217;-36
2022/01/21 09:15:57;;;;;;;6.57;4.10;;;1.60;99.90;;;;;;5031981;28;20237;-33
2022/01/21 09:18:25;;;;;;;7.33;3.40;;;1.60;99.90;;;;;;5031559;28;20177;-34
2022/01/21 09:20:52;;;;;;;8.67;3.83;;;1.60;99.90;;;;;;5031733;28;20202;-32
2022/01/21 09:23:18;;;;;;;10.10;4.30;;;1.60;99.90;;;;;;5031590;28;20197;-33
2022/01/21 09:25:43;;;;;;;6.83;3.67;;;1.60;99.90;;;;;;5031422;28;20655;-33
2022/01/21 09:28:10;;;;;;;13.53;4.00;;;1.60;99.90;;;;;;5029648;28;20666;-33
2022/01/21 09:30:36;;;;;;;8.90;3.80;;;1.60;99.90;;;;;;5015048;28;20627;-33
2022/01/21 09:33:02;;;;;;;8.90;3.80;;;1.70;99.90;;;;;;5015016;28;20218;-32
2022/01/21 09:35:28;;;;;;;10.30;4.73;;;1.70;99.90;;;;;;5014923;28;20189;-33
2022/01/21 09:37:54;;;;;;;10.27;4.37;;;1.70;99.90;;;;;;5014939;28;20185;-33
2022/01/21 09:40:30;;;;;;;8.83;3.60;;;1.70;99.90;;;;;;5014719;28;20240;-34
2022/01/21 09:42:57;;;;;;;10.07;4.13;;;1.60;99.90;;;;;;5015081;28;20209;-33
2022/01/21 09:45:24;;;;;;;10.37;4.20;;;1.60;99.90;;;;;;5015001;28;20186;-36
2022/01/21 09:47:54;;;;;;;8.67;3.67;;;1.70;99.90;;;;;;5014454;28;20467;-32
2022/01/21 09:50:22;;;;;;;9.93;4.67;;;1.70;99.90;;;;;;5014856;28;20299;-34
2022/01/21 09:52:49;;;;;;;9.03;3.93;;;1.80;99.90;;;;;;5030731;28;20249;-33
2022/01/21 09:55:20;;;;;;;10.23;4.20;;;1.80;99.90;;;;;;5014692;28;20292;-33
2022/01/21 09:57:51;;;;;;;8.00;4.03;;;1.80;99.90;;;;;;5030943;28;20603;-33
2022/01/21 10:00:20;;;;;;;8.93;3.70;;;1.80;99.90;;;;;;5014611;28;20193;-34
2022/01/21 10:02:48;;;;;;;7.93;4.10;;;1.80;99.90;;;;;;5011039;28;20218;-33
2022/01/21 10:05:14;;;;;;;8.40;4.17;;;1.80;99.90;;;;;;5010853;28;20210;-33
2022/01/21 10:07:41;;;;;;;9.47;3.90;;;1.80;99.90;;;;;;4994574;28;20270;-33
2022/01/21 10:10:08;;;;;;;10.80;3.77;;;1.80;99.90;;;;;;4994802;28;20198;-34
2022/01/21 10:12:38;;;;;;;8.37;4.03;;;1.90;99.90;;;;;;4994495;28;20210;-35
2022/01/21 10:15:05;;;;;;;9.87;4.97;;;1.90;99.90;;;;;;5021852;23;20180;-87
2022/01/21 10:17:31;;;;;;;12.90;5.00;;;2.00;99.90;;;;;;5016446;28;20207;-87
2022/01/21 10:20:21;;;;;;;8.60;4.63;;;2.00;99.90;;;;;;5016358;28;20210;-87
2022/01/21 10:22:58;;;;;;;6.60;3.50;;;2.10;99.90;;;;;;5016620;28;20241;-88
2022/01/21 10:25:25;;;;;;;9.33;3.77;;;2.10;99.90;;;;;;5016231;28;20190;-94
2022/01/21 10:27:51;;;;;;;14.73;5.10;;;2.00;99.90;;;;;;5033865;28;20261;-93
2022/01/21 10:30:25;;;;;;;11.50;5.13;;;2.10;99.90;;;;;;5035015;28;20179;-93
2022/01/21 10:32:52;;;;;;;8.77;4.93;;;2.00;99.90;;;;;;5035137;28;20202;-93
2022/01/21 10:35:26;;;;;;;7.57;4.60;;;2.10;99.90;;;;;;5034320;28;20193;-93
2022/01/21 10:37:56;;;;;;;10.23;5.37;;;2.10;99.90;;;;;;5017740;28;20190;-92
2022/01/21 10:40:22;;;;;;;10.97;4.63;;;2.10;99.90;;;;;;5033765;28;20170;-94
2022/01/21 10:42:49;;;;;;;14.83;4.90;;;2.10;99.90;;;;;;5034522;28;20205;-93
2022/01/21 10:45:15;;;;;;;9.10;3.80;;;2.20;99.90;;;;;;5034822;28;20179;-94
2022/01/21 10:47:49;;;;;;;9.83;4.70;;;2.30;99.90;;;;;;5034381;28;20181;-94
2022/01/21 10:50:22;;;;;;;14.43;4.70;;;2.20;99.90;;;;;;5035111;28;20192;-94
2022/01/21 10:52:51;;;;;;;11.67;4.33;;;2.30;99.90;;;;;;5035112;28;20229;-93
2022/01/21 10:55:38;;;;;;;10.67;4.53;;;2.30;99.90;;;;;;5043244;28;20186;-93
2022/01/21 10:58:12;;;;;;;14.93;5.40;;;2.40;99.90;;;;;;5046364;28;20185;-93
2022/01/21 11:00:57;;;;;;;11.93;4.60;;;2.50;99.90;;;;;;5046051;28;20185;-93
2022/01/21 11:03:23;;;;;;;9.27;4.40;;;2.50;99.90;;;;;;5048060;28;20198;-92
2022/01/21 11:05:51;;;;;;;8.47;3.80;;;2.50;99.90;;;;;;5045894;28;20182;-93
2022/01/21 11:08:18;;;;;;;9.13;4.17;;;2.50;99.90;;;;;;5047073;28;20193;-93
2022/01/21 11:10:50;;;;;;;8.97;3.93;;;2.50;99.90;;;;;;5046009;28;20178;-93
2022/01/21 11:13:18;;;;;;;10.53;3.80;;;2.50;99.90;;;;;;5046400;28;20210;-93
2022/01/21 11:15:48;;;;;;;10.60;5.00;;;2.60;99.90;;;;;;5030376;28;20220;-93
2022/01/21 11:18:17;;;;;;;9.70;6.93;;;2.70;99.90;;;;;;5047220;28;20206;-93
2022/01/21 11:20:48;;;;;;;7.60;3.90;;;2.70;99.90;;;;;;5049529;28;20184;-94
2022/01/21 11:23:16;;;;;;;11.23;3.90;;;2.70;99.90;;;;;;5048274;28;20203;-93
2022/01/21 11:26:01;;;;;;;7.70;3.10;;;2.80;99.90;;;;;;5048446;28;20249;-93
2022/01/21 11:28:39;;;;;;;7.13;3.30;;;2.80;99.90;;;;;;5048078;28;20178;-93
2022/01/21 11:31:06;;;;;;;7.20;3.50;;;2.90;99.90;;;;;;5048187;28;20171;-93
2022/01/21 11:33:32;;;;;;;7.33;3.53;;;3.00;99.90;;;;;;5048044;28;20354;-92
2022/01/21 11:35:59;;;;;;;9.47;3.83;;;3.00;99.90;;;;;;5049446;28;20179;-93
2022/01/21 11:38:26;;;;;;;7.20;3.30;;;3.00;99.90;;;;;;5049118;28;20174;-93
2022/01/21 11:40:53;;;;;;;7.30;3.10;;;3.00;99.90;;;;;;5049175;28;20159;-93
2022/01/21 11:43:19;;;;;;;8.00;3.20;;;3.10;99.90;;;;;;5050176;28;20209;-93
2022/01/21 11:46:16;;;;;;;9.73;3.83;;;3.20;99.90;;;;;;5048800;28;20187;-93
2022/01/21 11:48:55;;;;;;;7.97;3.03;;;3.30;99.90;;;;;;5051209;28;20178;-94
2022/01/21 11:51:31;;;;;;;10.20;3.40;;;3.30;99.90;;;;;;5054042;28;20197;-93
2022/01/21 11:54:01;;;;;;;7.83;2.97;;;3.30;99.90;;;;;;5037645;28;20210;-93
2022/01/21 11:56:35;;;;;;;8.93;3.60;;;3.40;99.90;;;;;;5053407;28;20170;-94
2022/01/21 11:59:12;;;;;;;7.40;3.53;;;3.30;99.90;;;;;;5036604;28;20163;-93
2022/01/21 12:01:47;;;;;;;10.40;3.30;;;3.30;99.90;;;;;;5036039;28;20245;-93
2022/01/21 12:04:29;;;;;;;6.93;3.43;;;3.40;99.90;;;;;;5053274;28;20693;-93
2022/01/21 12:06:59;;;;;;;8.73;4.03;;;3.40;99.90;;;;;;5037030;28;20170;-93
2022/01/21 12:10:04;;;;;;;9.93;4.67;;;3.50;99.90;;;;;;5053424;28;20199;-92
2022/01/21 12:13:01;;;;;;;11.47;4.63;;;3.60;99.90;;;;;;5053717;28;20225;-93
2022/01/21 12:15:42;;;;;;;10.03;4.37;;;3.60;99.90;;;;;;5036486;28;20205;-93
2022/01/21 12:18:21;;;;;;;11.83;5.30;;;3.60;99.90;;;;;;5037141;28;20205;-93
2022/01/21 12:20:48;;;;;;;12.03;4.13;;;3.60;99.90;;;;;;5038560;28;20155;-93
2022/01/21 12:23:19;;;;;;;9.77;4.07;;;3.70;99.90;;;;;;5054280;28;20237;-93
2022/01/21 12:26:10;;;;;;;6.27;2.63;;;3.70;99.90;;;;;;5055103;28;20186;-95
2022/01/21 12:28:41;;;;;;;7.73;2.43;;;3.80;99.90;;;;;;5038835;28;20187;-93
2022/01/21 12:31:09;;;;;;;8.17;2.53;;;3.80;99.90;;;;;;5054769;28;20198;-94
2022/01/21 12:33:59;;;;;;;7.37;3.37;;;3.80;99.90;;;;;;5070306;28;20217;-93
2022/01/21 12:36:30;;;;;;;5.30;2.70;;;3.80;99.90;;;;;;5038730;28;20175;-93
2022/01/21 12:41:47;;;;;;;7.90;3.00;;;3.70;99.90;;;;;;5058077;28;20186;-93
2022/01/21 12:44:39;;;;;;;6.90;2.63;;;3.60;99.90;;;;;;5059047;28;20214;-93
2022/01/21 12:47:30;;;;;;;6.33;2.67;;;3.60;99.90;;;;;;5059027;28;20222;-94
2022/01/21 12:49:59;;;;;;;5.37;2.60;;;3.50;99.90;;;;;;5059104;28;20195;-93
2022/01/21 12:53:24;;;;;;;6.10;2.23;;;3.50;99.90;;;;;;5060223;28;20221;-94
2022/01/21 12:56:03;;;;;;;4.43;2.20;;;3.50;99.90;;;;;;5059068;28;20155;-93
2022/01/21 12:59:18;;;;;;;4.33;1.93;;;3.50;99.90;;;;;;5059020;28;20179;-93
2022/01/21 13:01:56;;;;;;;4.13;2.10;;;3.50;99.90;;;;;;5042177;28;20226;-93
2022/01/21 13:14:55;;;;;;;6.23;2.27;;;3.80;99.90;;;;;;5004704;28;20207;-42
2022/01/21 13:17:22;;;;;;;7.77;2.33;;;3.70;99.90;;;;;;5010669;28;20175;-42
2022/01/21 13:19:57;;;;;;;6.43;2.33;;;3.80;99.90;;;;;;4995457;28;20249;-42
2022/01/21 13:22:29;;;;;;;3.13;1.70;;;3.80;99.90;;;;;;4992424;28;20183;-42
2022/01/21 13:25:10;;;;;;;5.97;1.93;;;3.90;99.90;;;;;;4993743;28;20176;-41
2022/01/21 13:27:47;;;;;;;3.87;1.63;;;3.90;99.90;;;;;;5060067;22;20221;-37
2022/01/21 13:30:17;;;;;;;4.37;1.73;;;4.00;99.90;;;;;;5051522;28;20170;-39
2022/01/21 13:32:43;;;;;;;4.27;1.53;;;4.00;99.90;;;;;;5034900;28;20230;-38
2022/01/21 13:35:21;;;;;;;4.33;1.63;;;4.00;99.90;;;;;;5051576;28;20304;-39
2022/01/21 13:38:01;;;;;;;2.97;1.47;;;3.90;99.90;;;;;;5051175;28;20265;-38
2022/01/21 13:40:30;;;;;;;5.33;1.73;;;3.90;99.90;;;;;;5050438;28;20178;-37
2022/01/21 13:43:10;;;;;;;4.10;1.60;;;3.90;99.90;;;;;;5040927;28;20182;-38
2022/01/21 13:45:37;;;;;;;2.60;1.40;;;4.00;99.90;;;;;;5026462;28;20174;-37
2022/01/21 13:48:07;;;;;;;5.27;1.40;;;4.10;99.90;;;;;;5045871;28;20610;-38
2022/01/21 13:50:34;;;;;;;6.53;1.73;;;4.10;99.90;;;;;;5051638;28;20185;-38
2022/01/21 13:53:03;;;;;;;5.47;1.50;;;4.10;99.90;;;;;;5051310;28;20205;-37
2022/01/21 13:55:43;;;;;;;4.43;1.50;;;4.10;99.90;;;;;;5053623;28;20262;-37
2022/01/21 13:58:17;;;;;;;3.47;1.53;;;4.00;99.90;;;;;;5050717;28;20194;-37
2022/01/21 14:00:53;;;;;;;9.63;4.20;;;4.00;99.90;;;;;;5034250;28;20192;-37
2022/01/21 14:03:29;;;;;;;5.30;2.77;;;3.90;99.90;;;;;;5034334;28;20224;-37
2022/01/21 14:05:57;;;;;;;6.83;1.57;;;3.80;99.90;;;;;;5051989;28;20319;-37
2022/01/21 14:08:45;;;;;;;3.60;1.47;;;3.70;99.90;;;;;;5050723;28;20197;-37
2022/01/21 14:11:26;;;;;;;5.43;1.90;;;3.50;99.90;;;;;;5049954;28;20194;-37
2022/01/21 14:13:59;;;;;;;4.23;1.50;;;3.50;99.90;;;;;;5033371;28;20619;-37
2022/01/21 14:16:36;;;;;;;3.77;1.57;;;3.50;99.90;;;;;;5050479;28;20224;-37